sensor_id;sensor_type;location;lat;lon;timestamp;P1;durP1;ratioP1;P2;durP2;ratioP2
56720;SDS011;53183;47.412;18.884;2023-02-28T00:01:13;9.25;;;4.60;;
56720;SDS011;53183;47.412;18.884;2023-02-28T00:03:42;8.95;;;4.37;;
56720;SDS011;53183;47.412;18.884;2023-02-28T00:06:09;11.70;;;4.57;;
56720;SDS011;53183;47.412;18.884;2023-02-28T00:08:37;8.80;;;4.62;;
56720;SDS011;53183;47.412;18.884;2023-02-28T00:11:07;9.10;;;4.80;;
56720;SDS011;53183;47.412;18.884;2023-02-28T00:13:38;9.40;;;5.12;;
56720;SDS011;53183;47.412;18.884;2023-02-28T00:16:12;9.48;;;5.47;;
56720;SDS011;53183;47.412;18.884;2023-02-28T00:18:41;9.63;;;4.65;;
56720;SDS011;53183;47.412;18.884;2023-02-28T00:21:09;11.63;;;5.15;;
56720;SDS011;53183;47.412;18.884;2023-02-28T00:23:36;11.98;;;5.32;;
56720;SDS011;53183;47.412;18.884;2023-02-28T00:26:04;10.23;;;4.95;;
56720;SDS011;53183;47.412;18.884;2023-02-28T00:28:31;10.88;;;4.65;;
56720;SDS011;53183;47.412;18.884;2023-02-28T00:30:59;8.93;;;4.37;;
56720;SDS011;53183;47.412;18.884;2023-02-28T00:33:28;8.88;;;4.78;;
56720;SDS011;53183;47.412;18.884;2023-02-28T00:36:03;12.63;;;5.65;;
56720;SDS011;53183;47.412;18.884;2023-02-28T00:38:35;11.02;;;4.75;;
56720;SDS011;53183;47.412;18.884;2023-02-28T00:41:03;8.00;;;5.03;;
56720;SDS011;53183;47.412;18.884;2023-02-28T00:43:32;8.23;;;4.85;;
56720;SDS011;53183;47.412;18.884;2023-02-28T00:46:00;9.50;;;4.82;;
56720;SDS011;53183;47.412;18.884;2023-02-28T00:48:29;9.43;;;4.80;;
56720;SDS011;53183;47.412;18.884;2023-02-28T00:50:57;8.40;;;4.85;;
56720;SDS011;53183;47.412;18.884;2023-02-28T00:53:24;9.60;;;5.40;;
56720;SDS011;53183;47.412;18.884;2023-02-28T00:55:52;8.50;;;4.60;;
56720;SDS011;53183;47.412;18.884;2023-02-28T00:58:19;8.60;;;4.37;;
56720;SDS011;53183;47.412;18.884;2023-02-28T01:00:46;10.30;;;5.62;;
56720;SDS011;53183;47.412;18.884;2023-02-28T01:03:16;8.23;;;5.07;;
56720;SDS011;53183;47.412;18.884;2023-02-28T01:05:44;8.55;;;4.72;;
56720;SDS011;53183;47.412;18.884;2023-02-28T01:08:12;10.90;;;5.15;;
56720;SDS011;53183;47.412;18.884;2023-02-28T01:10:41;11.82;;;5.85;;
56720;SDS011;53183;47.412;18.884;2023-02-28T01:13:08;13.43;;;5.68;;
56720;SDS011;53183;47.412;18.884;2023-02-28T01:15:36;12.10;;;5.22;;
56720;SDS011;53183;47.412;18.884;2023-02-28T01:18:04;10.40;;;5.55;;
56720;SDS011;53183;47.412;18.884;2023-02-28T01:20:32;9.82;;;4.70;;
56720;SDS011;53183;47.412;18.884;2023-02-28T01:22:59;10.25;;;5.47;;
56720;SDS011;53183;47.412;18.884;2023-02-28T01:25:26;8.55;;;5.28;;
56720;SDS011;53183;47.412;18.884;2023-02-28T01:27:54;13.98;;;5.57;;
56720;SDS011;53183;47.412;18.884;2023-02-28T01:30:21;9.57;;;4.32;;
56720;SDS011;53183;47.412;18.884;2023-02-28T01:32:48;11.02;;;5.60;;
56720;SDS011;53183;47.412;18.884;2023-02-28T01:35:17;9.52;;;5.30;;
56720;SDS011;53183;47.412;18.884;2023-02-28T01:37:45;11.12;;;5.70;;
56720;SDS011;53183;47.412;18.884;2023-02-28T01:40:12;11.00;;;5.75;;
56720;SDS011;53183;47.412;18.884;2023-02-28T01:42:41;10.23;;;4.90;;
56720;SDS011;53183;47.412;18.884;2023-02-28T01:48:02;9.63;;;5.15;;
56720;SDS011;53183;47.412;18.884;2023-02-28T01:50:34;17.87;;;5.03;;
56720;SDS011;53183;47.412;18.884;2023-02-28T01:53:07;8.50;;;4.47;;
56720;SDS011;53183;47.412;18.884;2023-02-28T01:55:40;6.53;;;4.00;;
56720;SDS011;53183;47.412;18.884;2023-02-28T01:58:12;9.48;;;4.95;;
56720;SDS011;53183;47.412;18.884;2023-02-28T02:00:40;11.63;;;4.70;;
56720;SDS011;53183;47.412;18.884;2023-02-28T02:03:11;9.25;;;4.75;;
56720;SDS011;53183;47.412;18.884;2023-02-28T02:05:43;8.00;;;4.45;;
56720;SDS011;53183;47.412;18.884;2023-02-28T02:08:19;9.32;;;4.57;;
56720;SDS011;53183;47.412;18.884;2023-02-28T02:10:51;7.22;;;4.03;;
56720;SDS011;53183;47.412;18.884;2023-02-28T02:18:47;17.55;;;6.30;;
56720;SDS011;53183;47.412;18.884;2023-02-28T02:23:51;13.75;;;5.55;;
56720;SDS011;53183;47.412;18.884;2023-02-28T02:32:14;10.23;;;4.15;;
56720;SDS011;53183;47.412;18.884;2023-02-28T02:34:50;7.47;;;4.33;;
56720;SDS011;53183;47.412;18.884;2023-02-28T02:40:18;10.52;;;4.18;;
56720;SDS011;53183;47.412;18.884;2023-02-28T02:45:23;11.05;;;4.57;;
56720;SDS011;53183;47.412;18.884;2023-02-28T02:47:56;9.18;;;3.97;;
56720;SDS011;53183;47.412;18.884;2023-02-28T02:50:37;8.63;;;4.70;;
56720;SDS011;53183;47.412;18.884;2023-02-28T02:53:07;7.45;;;3.78;;
56720;SDS011;53183;47.412;18.884;2023-02-28T02:55:38;6.43;;;4.03;;
56720;SDS011;53183;47.412;18.884;2023-02-28T02:58:09;8.70;;;4.15;;
56720;SDS011;53183;47.412;18.884;2023-02-28T03:00:43;8.50;;;4.37;;
56720;SDS011;53183;47.412;18.884;2023-02-28T03:03:14;9.88;;;4.85;;
56720;SDS011;53183;47.412;18.884;2023-02-28T03:05:46;9.80;;;4.40;;
56720;SDS011;53183;47.412;18.884;2023-02-28T03:08:17;8.98;;;4.00;;
56720;SDS011;53183;47.412;18.884;2023-02-28T03:10:46;11.30;;;4.57;;
56720;SDS011;53183;47.412;18.884;2023-02-28T03:25:12;11.25;;;3.75;;
56720;SDS011;53183;47.412;18.884;2023-02-28T03:33:02;13.18;;;4.18;;
56720;SDS011;53183;47.412;18.884;2023-02-28T03:35:51;8.45;;;3.67;;
56720;SDS011;53183;47.412;18.884;2023-02-28T03:38:45;9.70;;;4.30;;
56720;SDS011;53183;47.412;18.884;2023-02-28T03:41:17;8.75;;;4.28;;
56720;SDS011;53183;47.412;18.884;2023-02-28T03:43:50;8.35;;;4.22;;
56720;SDS011;53183;47.412;18.884;2023-02-28T03:46:23;9.40;;;4.28;;
56720;SDS011;53183;47.412;18.884;2023-02-28T03:49:09;9.95;;;4.32;;
56720;SDS011;53183;47.412;18.884;2023-02-28T03:51:43;7.65;;;3.37;;
56720;SDS011;53183;47.412;18.884;2023-02-28T03:54:13;10.07;;;4.10;;
56720;SDS011;53183;47.412;18.884;2023-02-28T04:00:08;11.60;;;4.47;;
56720;SDS011;53183;47.412;18.884;2023-02-28T04:02:41;11.70;;;3.87;;
56720;SDS011;53183;47.412;18.884;2023-02-28T04:05:08;8.55;;;3.60;;
56720;SDS011;53183;47.412;18.884;2023-02-28T04:07:35;5.93;;;4.12;;
56720;SDS011;53183;47.412;18.884;2023-02-28T04:10:03;10.68;;;4.25;;
56720;SDS011;53183;47.412;18.884;2023-02-28T04:12:31;8.50;;;4.25;;
56720;SDS011;53183;47.412;18.884;2023-02-28T04:14:58;10.82;;;4.80;;
56720;SDS011;53183;47.412;18.884;2023-02-28T04:17:26;9.55;;;4.50;;
56720;SDS011;53183;47.412;18.884;2023-02-28T04:19:54;10.52;;;4.37;;
56720;SDS011;53183;47.412;18.884;2023-02-28T04:22:23;7.45;;;4.78;;
56720;SDS011;53183;47.412;18.884;2023-02-28T04:24:54;15.10;;;4.28;;
56720;SDS011;53183;47.412;18.884;2023-02-28T04:27:21;9.02;;;4.30;;
56720;SDS011;53183;47.412;18.884;2023-02-28T04:29:48;11.65;;;5.00;;
56720;SDS011;53183;47.412;18.884;2023-02-28T04:32:16;11.70;;;4.65;;
56720;SDS011;53183;47.412;18.884;2023-02-28T04:34:43;10.25;;;4.90;;
56720;SDS011;53183;47.412;18.884;2023-02-28T04:37:10;11.15;;;5.30;;
56720;SDS011;53183;47.412;18.884;2023-02-28T04:39:40;11.52;;;5.18;;
56720;SDS011;53183;47.412;18.884;2023-02-28T04:42:08;8.60;;;4.55;;
56720;SDS011;53183;47.412;18.884;2023-02-28T04:44:36;10.77;;;4.65;;
56720;SDS011;53183;47.412;18.884;2023-02-28T04:47:04;9.23;;;4.53;;
56720;SDS011;53183;47.412;18.884;2023-02-28T04:49:31;12.88;;;5.37;;
56720;SDS011;53183;47.412;18.884;2023-02-28T04:51:58;10.30;;;5.75;;
56720;SDS011;53183;47.412;18.884;2023-02-28T04:54:26;9.65;;;4.65;;
56720;SDS011;53183;47.412;18.884;2023-02-28T04:56:54;14.23;;;5.12;;
56720;SDS011;53183;47.412;18.884;2023-02-28T04:59:22;10.18;;;5.15;;
56720;SDS011;53183;47.412;18.884;2023-02-28T05:01:49;13.95;;;5.07;;
56720;SDS011;53183;47.412;18.884;2023-02-28T05:04:16;10.10;;;4.75;;
56720;SDS011;53183;47.412;18.884;2023-02-28T05:06:44;12.07;;;5.45;;
56720;SDS011;53183;47.412;18.884;2023-02-28T05:09:12;8.73;;;4.65;;
56720;SDS011;53183;47.412;18.884;2023-02-28T05:11:39;10.20;;;5.07;;
56720;SDS011;53183;47.412;18.884;2023-02-28T05:14:09;8.57;;;5.18;;
56720;SDS011;53183;47.412;18.884;2023-02-28T05:16:38;8.63;;;5.65;;
56720;SDS011;53183;47.412;18.884;2023-02-28T05:19:06;9.57;;;5.00;;
56720;SDS011;53183;47.412;18.884;2023-02-28T05:24:03;9.93;;;4.75;;
56720;SDS011;53183;47.412;18.884;2023-02-28T05:26:44;16.50;;;5.70;;
56720;SDS011;53183;47.412;18.884;2023-02-28T05:29:12;8.15;;;4.65;;
56720;SDS011;53183;47.412;18.884;2023-02-28T05:31:39;13.75;;;5.53;;
56720;SDS011;53183;47.412;18.884;2023-02-28T05:34:06;14.23;;;5.43;;
56720;SDS011;53183;47.412;18.884;2023-02-28T05:36:33;12.40;;;4.85;;
56720;SDS011;53183;47.412;18.884;2023-02-28T05:39:04;9.18;;;4.55;;
56720;SDS011;53183;47.412;18.884;2023-02-28T05:41:34;16.08;;;6.07;;
56720;SDS011;53183;47.412;18.884;2023-02-28T05:44:01;15.23;;;7.07;;
56720;SDS011;53183;47.412;18.884;2023-02-28T05:46:28;11.88;;;5.65;;
56720;SDS011;53183;47.412;18.884;2023-02-28T05:48:55;13.60;;;6.30;;
56720;SDS011;53183;47.412;18.884;2023-02-28T05:51:24;11.63;;;4.97;;
56720;SDS011;53183;47.412;18.884;2023-02-28T05:53:51;14.70;;;6.20;;
56720;SDS011;53183;47.412;18.884;2023-02-28T05:56:19;10.55;;;4.87;;
56720;SDS011;53183;47.412;18.884;2023-02-28T05:58:46;8.85;;;5.28;;
56720;SDS011;53183;47.412;18.884;2023-02-28T06:01:20;12.43;;;6.07;;
56720;SDS011;53183;47.412;18.884;2023-02-28T06:04:03;15.35;;;5.72;;
56720;SDS011;53183;47.412;18.884;2023-02-28T06:06:32;13.77;;;5.35;;
56720;SDS011;53183;47.412;18.884;2023-02-28T06:09:06;11.73;;;5.05;;
56720;SDS011;53183;47.412;18.884;2023-02-28T06:11:33;10.27;;;5.25;;
56720;SDS011;53183;47.412;18.884;2023-02-28T06:14:00;10.32;;;5.18;;
56720;SDS011;53183;47.412;18.884;2023-02-28T06:16:30;16.95;;;6.72;;
56720;SDS011;53183;47.412;18.884;2023-02-28T06:18:59;14.32;;;6.40;;
56720;SDS011;53183;47.412;18.884;2023-02-28T06:21:28;20.15;;;6.95;;
56720;SDS011;53183;47.412;18.884;2023-02-28T06:23:57;18.08;;;7.80;;
56720;SDS011;53183;47.412;18.884;2023-02-28T06:26:24;22.85;;;7.68;;
56720;SDS011;53183;47.412;18.884;2023-02-28T06:28:52;19.62;;;7.25;;
56720;SDS011;53183;47.412;18.884;2023-02-28T06:31:20;13.88;;;6.18;;
56720;SDS011;53183;47.412;18.884;2023-02-28T06:33:48;9.52;;;5.65;;
56720;SDS011;53183;47.412;18.884;2023-02-28T06:36:16;13.70;;;5.35;;
56720;SDS011;53183;47.412;18.884;2023-02-28T06:38:44;10.05;;;5.12;;
56720;SDS011;53183;47.412;18.884;2023-02-28T06:41:11;13.27;;;6.45;;
56720;SDS011;53183;47.412;18.884;2023-02-28T06:43:41;9.57;;;4.75;;
56720;SDS011;53183;47.412;18.884;2023-02-28T06:46:11;12.10;;;4.85;;
56720;SDS011;53183;47.412;18.884;2023-02-28T06:48:40;11.45;;;4.97;;
56720;SDS011;53183;47.412;18.884;2023-02-28T06:51:11;9.45;;;4.65;;
56720;SDS011;53183;47.412;18.884;2023-02-28T06:53:40;7.25;;;4.12;;
56720;SDS011;53183;47.412;18.884;2023-02-28T06:56:12;8.38;;;4.70;;
56720;SDS011;53183;47.412;18.884;2023-02-28T06:58:45;10.75;;;4.93;;
56720;SDS011;53183;47.412;18.884;2023-02-28T07:01:13;9.02;;;4.40;;
56720;SDS011;53183;47.412;18.884;2023-02-28T07:03:41;6.75;;;4.03;;
56720;SDS011;53183;47.412;18.884;2023-02-28T07:06:09;9.90;;;4.72;;
56720;SDS011;53183;47.412;18.884;2023-02-28T07:08:37;6.55;;;3.85;;
56720;SDS011;53183;47.412;18.884;2023-02-28T07:11:04;12.93;;;5.28;;
56720;SDS011;53183;47.412;18.884;2023-02-28T07:13:31;11.02;;;4.95;;
56720;SDS011;53183;47.412;18.884;2023-02-28T07:15:59;10.38;;;5.53;;
56720;SDS011;53183;47.412;18.884;2023-02-28T07:18:29;10.70;;;4.78;;
56720;SDS011;53183;47.412;18.884;2023-02-28T07:20:57;10.68;;;4.85;;
56720;SDS011;53183;47.412;18.884;2023-02-28T07:23:24;8.27;;;4.85;;
56720;SDS011;53183;47.412;18.884;2023-02-28T07:25:52;7.90;;;4.28;;
56720;SDS011;53183;47.412;18.884;2023-02-28T07:28:19;13.38;;;4.82;;
56720;SDS011;53183;47.412;18.884;2023-02-28T07:30:46;17.77;;;5.32;;
56720;SDS011;53183;47.412;18.884;2023-02-28T07:33:15;9.60;;;4.30;;
56720;SDS011;53183;47.412;18.884;2023-02-28T07:35:42;8.70;;;3.97;;
56720;SDS011;53183;47.412;18.884;2023-02-28T07:38:09;7.65;;;4.00;;
56720;SDS011;53183;47.412;18.884;2023-02-28T07:40:37;7.82;;;4.20;;
56720;SDS011;53183;47.412;18.884;2023-02-28T07:43:04;11.02;;;4.60;;
56720;SDS011;53183;47.412;18.884;2023-02-28T07:45:31;11.15;;;4.00;;
56720;SDS011;53183;47.412;18.884;2023-02-28T07:48:01;11.25;;;4.30;;
56720;SDS011;53183;47.412;18.884;2023-02-28T07:50:30;14.43;;;4.70;;
56720;SDS011;53183;47.412;18.884;2023-02-28T07:52:58;8.18;;;3.65;;
56720;SDS011;53183;47.412;18.884;2023-02-28T07:55:26;12.43;;;4.28;;
56720;SDS011;53183;47.412;18.884;2023-02-28T07:57:53;8.48;;;3.53;;
56720;SDS011;53183;47.412;18.884;2023-02-28T08:00:21;5.65;;;3.33;;
56720;SDS011;53183;47.412;18.884;2023-02-28T08:02:49;6.20;;;3.08;;
56720;SDS011;53183;47.412;18.884;2023-02-28T08:05:16;7.30;;;3.28;;
56720;SDS011;53183;47.412;18.884;2023-02-28T08:07:48;6.22;;;3.05;;
56720;SDS011;53183;47.412;18.884;2023-02-28T08:10:16;7.90;;;3.50;;
56720;SDS011;53183;47.412;18.884;2023-02-28T08:12:44;6.22;;;3.05;;
56720;SDS011;53183;47.412;18.884;2023-02-28T08:15:11;8.43;;;3.42;;
56720;SDS011;53183;47.412;18.884;2023-02-28T08:17:38;10.35;;;3.58;;
56720;SDS011;53183;47.412;18.884;2023-02-28T08:20:06;14.43;;;3.17;;
56720;SDS011;53183;47.412;18.884;2023-02-28T08:22:34;5.20;;;2.53;;
56720;SDS011;53183;47.412;18.884;2023-02-28T08:25:01;5.47;;;2.50;;
56720;SDS011;53183;47.412;18.884;2023-02-28T08:27:29;6.95;;;2.90;;
56720;SDS011;53183;47.412;18.884;2023-02-28T08:29:56;11.10;;;2.22;;
56720;SDS011;53183;47.412;18.884;2023-02-28T08:32:23;4.87;;;2.47;;
56720;SDS011;53183;47.412;18.884;2023-02-28T08:34:56;5.32;;;2.90;;
56720;SDS011;53183;47.412;18.884;2023-02-28T08:37:23;4.37;;;2.40;;
56720;SDS011;53183;47.412;18.884;2023-02-28T08:39:51;5.90;;;2.60;;
56720;SDS011;53183;47.412;18.884;2023-02-28T08:42:22;6.50;;;2.85;;
56720;SDS011;53183;47.412;18.884;2023-02-28T08:44:50;10.30;;;3.75;;
56720;SDS011;53183;47.412;18.884;2023-02-28T08:47:17;9.30;;;3.10;;
56720;SDS011;53183;47.412;18.884;2023-02-28T08:49:45;6.50;;;3.12;;
56720;SDS011;53183;47.412;18.884;2023-02-28T08:52:13;11.68;;;3.37;;
56720;SDS011;53183;47.412;18.884;2023-02-28T08:54:40;5.35;;;3.22;;
56720;SDS011;53183;47.412;18.884;2023-02-28T08:57:07;17.65;;;3.53;;
56720;SDS011;53183;47.412;18.884;2023-02-28T08:59:35;8.02;;;4.32;;
56720;SDS011;53183;47.412;18.884;2023-02-28T09:02:02;6.07;;;3.97;;
56720;SDS011;53183;47.412;18.884;2023-02-28T09:04:29;8.82;;;3.30;;
56720;SDS011;53183;47.412;18.884;2023-02-28T09:06:58;7.85;;;3.40;;
56720;SDS011;53183;47.412;18.884;2023-02-28T09:09:25;8.50;;;3.55;;
56720;SDS011;53183;47.412;18.884;2023-02-28T09:11:52;12.18;;;3.42;;
56720;SDS011;53183;47.412;18.884;2023-02-28T09:14:22;7.50;;;3.22;;
56720;SDS011;53183;47.412;18.884;2023-02-28T09:16:49;16.37;;;3.80;;
56720;SDS011;53183;47.412;18.884;2023-02-28T09:19:17;6.50;;;3.15;;
56720;SDS011;53183;47.412;18.884;2023-02-28T09:21:44;7.80;;;4.03;;
56720;SDS011;53183;47.412;18.884;2023-02-28T09:24:11;6.45;;;3.12;;
56720;SDS011;53183;47.412;18.884;2023-02-28T09:26:41;10.15;;;4.43;;
56720;SDS011;53183;47.412;18.884;2023-02-28T09:29:21;6.18;;;3.15;;
56720;SDS011;53183;47.412;18.884;2023-02-28T09:31:48;7.12;;;3.75;;
56720;SDS011;53183;47.412;18.884;2023-02-28T09:34:16;6.30;;;3.03;;
56720;SDS011;53183;47.412;18.884;2023-02-28T09:36:44;10.60;;;3.75;;
56720;SDS011;53183;47.412;18.884;2023-02-28T09:39:13;8.15;;;3.47;;
56720;SDS011;53183;47.412;18.884;2023-02-28T09:41:46;7.10;;;3.60;;
56720;SDS011;53183;47.412;18.884;2023-02-28T09:44:37;6.15;;;3.95;;
56720;SDS011;53183;47.412;18.884;2023-02-28T09:49:41;12.98;;;3.97;;
56720;SDS011;53183;47.412;18.884;2023-02-28T09:52:24;11.73;;;4.53;;
56720;SDS011;53183;47.412;18.884;2023-02-28T09:55:42;13.27;;;4.97;;
56720;SDS011;53183;47.412;18.884;2023-02-28T09:58:18;7.62;;;3.87;;
56720;SDS011;53183;47.412;18.884;2023-02-28T10:00:54;7.53;;;4.30;;
56720;SDS011;53183;47.412;18.884;2023-02-28T10:06:18;10.00;;;4.10;;
56720;SDS011;53183;47.412;18.884;2023-02-28T10:11:21;6.93;;;3.80;;
56720;SDS011;53183;47.412;18.884;2023-02-28T10:16:25;13.30;;;3.67;;
56720;SDS011;53183;47.412;18.884;2023-02-28T10:21:30;10.88;;;4.32;;
56720;SDS011;53183;47.412;18.884;2023-02-28T10:26:39;8.05;;;3.50;;
56720;SDS011;53183;47.412;18.884;2023-02-28T10:29:10;9.70;;;4.72;;
56720;SDS011;53183;47.412;18.884;2023-02-28T10:31:38;8.18;;;3.85;;
56720;SDS011;53183;47.412;18.884;2023-02-28T10:34:07;8.35;;;4.30;;
56720;SDS011;53183;47.412;18.884;2023-02-28T10:36:38;8.90;;;4.15;;
56720;SDS011;53183;47.412;18.884;2023-02-28T10:42:26;8.90;;;3.75;;
56720;SDS011;53183;47.412;18.884;2023-02-28T10:52:54;6.68;;;4.05;;
56720;SDS011;53183;47.412;18.884;2023-02-28T10:55:25;5.97;;;3.90;;
56720;SDS011;53183;47.412;18.884;2023-02-28T10:57:52;8.25;;;4.47;;
56720;SDS011;53183;47.412;18.884;2023-02-28T11:00:24;7.75;;;3.58;;
56720;SDS011;53183;47.412;18.884;2023-02-28T11:02:57;5.72;;;3.45;;
56720;SDS011;53183;47.412;18.884;2023-02-28T11:10:38;9.48;;;4.28;;
56720;SDS011;53183;47.412;18.884;2023-02-28T11:13:05;7.90;;;3.72;;
56720;SDS011;53183;47.412;18.884;2023-02-28T11:15:33;13.82;;;4.37;;
56720;SDS011;53183;47.412;18.884;2023-02-28T11:20:38;8.00;;;3.67;;
56720;SDS011;53183;47.412;18.884;2023-02-28T11:23:10;8.27;;;3.72;;
56720;SDS011;53183;47.412;18.884;2023-02-28T11:25:40;8.52;;;4.00;;
56720;SDS011;53183;47.412;18.884;2023-02-28T11:28:25;7.30;;;4.03;;
56720;SDS011;53183;47.412;18.884;2023-02-28T11:33:41;8.02;;;3.70;;
56720;SDS011;53183;47.412;18.884;2023-02-28T11:36:23;6.87;;;3.80;;
56720;SDS011;53183;47.412;18.884;2023-02-28T11:38:56;5.62;;;3.72;;
56720;SDS011;53183;47.412;18.884;2023-02-28T11:44:15;6.12;;;3.45;;
56720;SDS011;53183;47.412;18.884;2023-02-28T11:47:37;7.87;;;3.30;;
56720;SDS011;53183;47.412;18.884;2023-02-28T11:50:15;6.10;;;4.00;;
56720;SDS011;53183;47.412;18.884;2023-02-28T11:53:00;7.97;;;4.50;;
56720;SDS011;53183;47.412;18.884;2023-02-28T12:06:44;8.20;;;4.20;;
56720;SDS011;53183;47.412;18.884;2023-02-28T12:11:59;9.15;;;3.62;;
56720;SDS011;53183;47.412;18.884;2023-02-28T12:28:18;11.55;;;3.72;;
56720;SDS011;53183;47.412;18.884;2023-02-28T12:30:56;7.93;;;3.30;;
56720;SDS011;53183;47.412;18.884;2023-02-28T12:33:30;6.75;;;3.75;;
56720;SDS011;53183;47.412;18.884;2023-02-28T12:36:03;10.32;;;3.90;;
56720;SDS011;53183;47.412;18.884;2023-02-28T12:41:16;4.93;;;3.42;;
56720;SDS011;53183;47.412;18.884;2023-02-28T12:43:51;7.95;;;4.97;;
56720;SDS011;53183;47.412;18.884;2023-02-28T12:46:42;10.73;;;4.78;;
56720;SDS011;53183;47.412;18.884;2023-02-28T12:49:23;9.82;;;4.10;;
56720;SDS011;53183;47.412;18.884;2023-02-28T12:52:00;6.55;;;3.65;;
56720;SDS011;53183;47.412;18.884;2023-02-28T12:54:52;7.43;;;3.70;;
56720;SDS011;53183;47.412;18.884;2023-02-28T12:57:45;5.32;;;3.40;;
56720;SDS011;53183;47.412;18.884;2023-02-28T13:00:25;7.30;;;3.72;;
56720;SDS011;53183;47.412;18.884;2023-02-28T13:11:33;17.80;;;3.87;;
56720;SDS011;53183;47.412;18.884;2023-02-28T13:14:24;10.23;;;4.68;;
56720;SDS011;53183;47.412;18.884;2023-02-28T13:16:58;12.50;;;4.45;;
56720;SDS011;53183;47.412;18.884;2023-02-28T13:19:27;12.32;;;4.78;;
56720;SDS011;53183;47.412;18.884;2023-02-28T13:21:57;10.48;;;4.53;;
56720;SDS011;53183;47.412;18.884;2023-02-28T13:24:40;10.48;;;4.30;;
56720;SDS011;53183;47.412;18.884;2023-02-28T13:29:37;7.30;;;4.07;;
56720;SDS011;53183;47.412;18.884;2023-02-28T13:34:35;7.32;;;4.37;;
56720;SDS011;53183;47.412;18.884;2023-02-28T13:39:57;7.97;;;4.25;;
56720;SDS011;53183;47.412;18.884;2023-02-28T13:47:44;7.37;;;4.03;;
56720;SDS011;53183;47.412;18.884;2023-02-28T13:55:48;10.65;;;4.78;;
56720;SDS011;53183;47.412;18.884;2023-02-28T14:01:41;9.30;;;4.12;;
56720;SDS011;53183;47.412;18.884;2023-02-28T14:07:10;12.43;;;4.90;;
56720;SDS011;53183;47.412;18.884;2023-02-28T14:09:49;8.68;;;4.93;;
56720;SDS011;53183;47.412;18.884;2023-02-28T14:15:30;8.43;;;4.32;;
56720;SDS011;53183;47.412;18.884;2023-02-28T14:18:51;10.35;;;5.60;;
56720;SDS011;53183;47.412;18.884;2023-02-28T14:21:01;12.95;;;4.53;;
56720;SDS011;53183;47.412;18.884;2023-02-28T14:37:53;12.75;;;3.83;;
56720;SDS011;53183;47.412;18.884;2023-02-28T14:42:58;7.72;;;4.30;;
56720;SDS011;53183;47.412;18.884;2023-02-28T14:45:29;6.97;;;3.80;;
56720;SDS011;53183;47.412;18.884;2023-02-28T14:47:58;7.07;;;3.37;;
56720;SDS011;53183;47.412;18.884;2023-02-28T14:50:29;9.05;;;4.28;;
56720;SDS011;53183;47.412;18.884;2023-02-28T14:52:58;11.57;;;5.07;;
56720;SDS011;53183;47.412;18.884;2023-02-28T14:55:26;10.52;;;4.10;;
56720;SDS011;53183;47.412;18.884;2023-02-28T14:57:58;6.70;;;3.62;;
56720;SDS011;53183;47.412;18.884;2023-02-28T15:00:33;9.88;;;4.32;;
56720;SDS011;53183;47.412;18.884;2023-02-28T15:05:57;9.32;;;4.55;;
56720;SDS011;53183;47.412;18.884;2023-02-28T15:08:29;5.87;;;3.78;;
56720;SDS011;53183;47.412;18.884;2023-02-28T15:11:02;14.85;;;4.68;;
56720;SDS011;53183;47.412;18.884;2023-02-28T15:16:10;7.18;;;3.58;;
56720;SDS011;53183;47.412;18.884;2023-02-28T15:19:05;19.10;;;5.80;;
56720;SDS011;53183;47.412;18.884;2023-02-28T15:21:55;9.43;;;4.72;;
56720;SDS011;53183;47.412;18.884;2023-02-28T15:27:07;10.02;;;3.80;;
56720;SDS011;53183;47.412;18.884;2023-02-28T15:29:49;10.48;;;3.30;;
56720;SDS011;53183;47.412;18.884;2023-02-28T15:34:57;7.03;;;3.12;;
56720;SDS011;53183;47.412;18.884;2023-02-28T15:37:40;6.47;;;3.58;;
56720;SDS011;53183;47.412;18.884;2023-02-28T15:43:23;6.68;;;3.65;;
56720;SDS011;53183;47.412;18.884;2023-02-28T15:51:08;8.02;;;4.12;;
56720;SDS011;53183;47.412;18.884;2023-02-28T15:53:47;8.43;;;4.40;;
56720;SDS011;53183;47.412;18.884;2023-02-28T15:56:24;6.45;;;3.80;;
56720;SDS011;53183;47.412;18.884;2023-02-28T15:58:57;12.35;;;4.15;;
56720;SDS011;53183;47.412;18.884;2023-02-28T16:01:28;12.25;;;5.07;;
56720;SDS011;53183;47.412;18.884;2023-02-28T16:04:03;12.37;;;4.45;;
56720;SDS011;53183;47.412;18.884;2023-02-28T16:09:04;13.85;;;4.97;;
56720;SDS011;53183;47.412;18.884;2023-02-28T16:11:35;18.75;;;9.07;;
56720;SDS011;53183;47.412;18.884;2023-02-28T16:14:06;13.95;;;7.03;;
56720;SDS011;53183;47.412;18.884;2023-02-28T16:16:33;25.08;;;9.43;;
56720;SDS011;53183;47.412;18.884;2023-02-28T16:19:00;18.27;;;8.60;;
56720;SDS011;53183;47.412;18.884;2023-02-28T16:21:28;14.80;;;7.43;;
56720;SDS011;53183;47.412;18.884;2023-02-28T16:23:55;17.58;;;8.00;;
56720;SDS011;53183;47.412;18.884;2023-02-28T16:26:23;19.42;;;7.50;;
56720;SDS011;53183;47.412;18.884;2023-02-28T16:28:52;13.32;;;6.50;;
56720;SDS011;53183;47.412;18.884;2023-02-28T16:31:19;14.23;;;6.55;;
56720;SDS011;53183;47.412;18.884;2023-02-28T16:33:47;10.75;;;5.65;;
56720;SDS011;53183;47.412;18.884;2023-02-28T16:36:16;13.70;;;6.75;;
56720;SDS011;53183;47.412;18.884;2023-02-28T16:38:45;19.23;;;9.13;;
56720;SDS011;53183;47.412;18.884;2023-02-28T16:41:13;23.95;;;11.50;;
56720;SDS011;53183;47.412;18.884;2023-02-28T16:43:46;33.55;;;16.23;;
56720;SDS011;53183;47.412;18.884;2023-02-28T16:46:15;22.87;;;10.95;;
56720;SDS011;53183;47.412;18.884;2023-02-28T16:48:44;16.00;;;8.93;;
56720;SDS011;53183;47.412;18.884;2023-02-28T16:51:13;23.42;;;10.68;;
56720;SDS011;53183;47.412;18.884;2023-02-28T16:53:41;20.92;;;11.02;;
56720;SDS011;53183;47.412;18.884;2023-02-28T16:56:16;22.08;;;9.23;;
56720;SDS011;53183;47.412;18.884;2023-02-28T16:58:46;15.73;;;6.70;;
56720;SDS011;53183;47.412;18.884;2023-02-28T17:01:15;14.15;;;7.05;;
56720;SDS011;53183;47.412;18.884;2023-02-28T17:03:43;15.50;;;7.57;;
56720;SDS011;53183;47.412;18.884;2023-02-28T17:06:32;14.32;;;7.75;;
56720;SDS011;53183;47.412;18.884;2023-02-28T17:08:58;14.13;;;7.47;;
56720;SDS011;53183;47.412;18.884;2023-02-28T17:11:26;14.73;;;8.15;;
56720;SDS011;53183;47.412;18.884;2023-02-28T17:13:54;20.77;;;8.82;;
56720;SDS011;53183;47.412;18.884;2023-02-28T17:16:28;18.35;;;7.90;;
56720;SDS011;53183;47.412;18.884;2023-02-28T17:19:00;14.07;;;7.35;;
56720;SDS011;53183;47.412;18.884;2023-02-28T17:21:32;16.80;;;8.55;;
56720;SDS011;53183;47.412;18.884;2023-02-28T17:24:00;20.52;;;7.55;;
56720;SDS011;53183;47.412;18.884;2023-02-28T17:26:27;17.62;;;8.10;;
56720;SDS011;53183;47.412;18.884;2023-02-28T17:28:55;16.98;;;7.72;;
56720;SDS011;53183;47.412;18.884;2023-02-28T17:31:25;21.58;;;10.40;;
56720;SDS011;53183;47.412;18.884;2023-02-28T17:33:53;19.15;;;8.63;;
56720;SDS011;53183;47.412;18.884;2023-02-28T17:36:25;18.92;;;8.57;;
56720;SDS011;53183;47.412;18.884;2023-02-28T17:38:53;24.08;;;9.15;;
56720;SDS011;53183;47.412;18.884;2023-02-28T17:41:25;20.98;;;11.27;;
56720;SDS011;53183;47.412;18.884;2023-02-28T17:43:57;16.62;;;9.68;;
56720;SDS011;53183;47.412;18.884;2023-02-28T17:46:24;20.05;;;11.68;;
56720;SDS011;53183;47.412;18.884;2023-02-28T17:48:52;15.57;;;8.10;;
56720;SDS011;53183;47.412;18.884;2023-02-28T17:51:21;17.25;;;8.75;;
56720;SDS011;53183;47.412;18.884;2023-02-28T17:53:49;17.85;;;9.27;;
56720;SDS011;53183;47.412;18.884;2023-02-28T17:56:18;19.15;;;9.27;;
56720;SDS011;53183;47.412;18.884;2023-02-28T17:58:47;19.10;;;9.23;;
56720;SDS011;53183;47.412;18.884;2023-02-28T18:01:14;19.75;;;10.23;;